Time;durP1;ratioP1;P1;durP2;ratioP2;P2;SDS_P1;SDS_P2;PMS_P1;PMS_P2;Temp;Humidity;BMP_temperature;BMP_pressure;BME280_temperature;BME280_humidity;BME280_pressure;Samples;Min_cycle;Max_cycle;Signal;HPM_P1;HPM_P2
2022/02/20 00:00:40;;;;;;;2.80;1.17;;;4.80;75.00;;;;;;5075220;28;20195;-83
2022/02/20 00:03:06;;;;;;;1.58;1.40;;;4.90;72.20;;;;;;5076887;28;20214;-84
2022/02/20 00:05:33;;;;;;;2.63;1.20;;;4.90;72.60;;;;;;5073701;28;20283;-83
2022/02/20 00:08:02;;;;;;;4.30;2.30;;;4.90;72.70;;;;;;5085701;28;20225;-84
2022/02/20 00:10:29;;;;;;;1.83;1.42;;;5.10;73.20;;;;;;5106893;28;20659;-84
2022/02/20 00:12:57;;;;;;;1.55;0.88;;;4.90;73.40;;;;;;5092012;28;20205;-84
2022/02/20 00:15:24;;;;;;;5.18;1.88;;;4.90;74.50;;;;;;5102789;28;20577;-84
2022/02/20 00:17:53;;;;;;;4.38;2.15;;;4.80;74.60;;;;;;5107116;28;20194;-83
2022/02/20 00:20:21;;;;;;;2.58;1.50;;;4.80;75.00;;;;;;5091692;28;20299;-83
2022/02/20 00:22:48;;;;;;;1.30;0.85;;;4.80;75.50;;;;;;5109984;28;20228;-84
2022/02/20 00:25:16;;;;;;;2.05;1.25;;;4.90;76.20;;;;;;5109012;28;20323;-85
2022/02/20 00:27:43;;;;;;;2.10;1.27;;;4.80;77.20;;;;;;5084130;28;20219;-84
2022/02/20 00:30:10;;;;;;;6.72;1.35;;;4.70;78.40;;;;;;5100286;28;20186;-84
2022/02/20 00:32:37;;;;;;;2.35;1.33;;;4.60;79.70;;;;;;5094942;28;20198;-84
2022/02/20 00:35:05;;;;;;;1.48;1.38;;;4.60;80.90;;;;;;5102371;28;20747;-85
2022/02/20 00:37:32;;;;;;;5.88;1.25;;;4.60;86.30;;;;;;5105318;28;20194;-83
2022/02/20 00:39:59;;;;;;;2.55;1.30;;;4.60;81.90;;;;;;5100368;28;20202;-83
2022/02/20 00:42:27;;;;;;;1.60;1.50;;;4.70;91.30;;;;;;5090982;28;20274;-84
2022/02/20 00:44:54;;;;;;;2.75;1.05;;;4.60;82.50;;;;;;5098076;28;20222;-84
2022/02/20 00:47:21;;;;;;;3.00;1.25;;;4.90;83.10;;;;;;5106812;28;20275;-84
2022/02/20 00:49:47;;;;;;;1.38;0.85;;;4.40;83.00;;;;;;5091502;28;20627;-83
2022/02/20 00:52:14;;;;;;;6.07;1.40;;;4.40;83.60;;;;;;5109903;28;20660;-85
2022/02/20 00:54:41;;;;;;;2.78;1.13;;;4.50;84.00;;;;;;5097732;28;20218;-84
2022/02/20 00:57:08;;;;;;;1.48;1.35;;;4.40;84.20;;;;;;5096641;28;20282;-83
2022/02/20 00:59:36;;;;;;;2.40;1.45;;;4.40;84.20;;;;;;5103450;28;20190;-84
2022/02/20 01:02:03;;;;;;;4.70;1.20;;;4.50;84.50;;;;;;5100301;28;20429;-83
2022/02/20 01:04:30;;;;;;;4.20;1.73;;;4.70;92.10;;;;;;5089084;28;20228;-84
2022/02/20 01:06:57;;;;;;;2.30;1.63;;;4.40;85.10;;;;;;5092703;28;20186;-84
2022/02/20 01:09:25;;;;;;;6.30;1.42;;;4.50;84.90;;;;;;5097699;28;20203;-83
2022/02/20 01:11:54;;;;;;;3.08;1.10;;;4.40;85.10;;;;;;5089582;28;20707;-84
2022/02/20 01:14:21;;;;;;;6.28;1.17;;;4.40;85.80;;;;;;5090180;28;20202;-84
2022/02/20 01:16:50;;;;;;;7.68;1.75;;;4.30;86.10;;;;;;5068630;28;20213;-84
2022/02/20 01:19:18;;;;;;;1.42;1.10;;;4.30;90.50;;;;;;5091368;28;20309;-83
2022/02/20 01:21:46;;;;;;;1.67;0.93;;;4.30;86.80;;;;;;5089576;28;20190;-83
2022/02/20 01:24:14;;;;;;;4.57;2.17;;;4.30;87.10;;;;;;5088310;28;20234;-83
2022/02/20 01:26:42;;;;;;;2.50;0.93;;;4.30;87.20;;;;;;5100719;28;20282;-84
2022/02/20 01:29:10;;;;;;;1.88;1.15;;;4.30;87.50;;;;;;5089331;28;20261;-84
2022/02/20 01:31:38;;;;;;;2.50;1.10;;;4.30;87.80;;;;;;5092055;28;20198;-83
2022/02/20 01:34:10;;;;;;;7.55;1.20;;;4.20;88.20;;;;;;5089081;28;20213;-84
2022/02/20 01:36:37;;;;;;;1.58;1.20;;;4.30;88.20;;;;;;5108256;28;20277;-84
2022/02/20 01:39:04;;;;;;;5.38;1.30;;;4.20;88.30;;;;;;5102403;28;20678;-83
2022/02/20 01:41:31;;;;;;;3.97;1.30;;;4.30;88.40;;;;;;5080237;28;20604;-84
2022/02/20 01:43:58;;;;;;;2.30;1.50;;;4.30;88.60;;;;;;5097349;28;20226;-83
2022/02/20 01:46:25;;;;;;;1.45;1.35;;;4.30;88.70;;;;;;5097343;28;20202;-85
2022/02/20 01:48:52;;;;;;;4.68;1.50;;;4.20;88.80;;;;;;5098873;28;20669;-83
2022/02/20 01:51:20;;;;;;;3.50;1.65;;;4.20;89.10;;;;;;5104063;28;20250;-83
2022/02/20 01:53:47;;;;;;;1.85;0.95;;;4.30;89.20;;;;;;5108196;28;20210;-84
2022/02/20 01:56:14;;;;;;;2.72;1.00;;;4.30;89.10;;;;;;5090522;28;20758;-85
2022/02/20 01:58:42;;;;;;;1.90;1.40;;;4.30;88.90;;;;;;5098787;28;20239;-84
2022/02/20 02:01:09;;;;;;;5.30;1.38;;;4.30;89.20;;;;;;5092805;28;20285;-84
2022/02/20 02:03:36;;;;;;;1.13;0.88;;;4.30;91.20;;;;;;5099180;28;20305;-84
2022/02/20 02:06:04;;;;;;;2.05;0.90;;;4.40;89.50;;;;;;5106773;28;20742;-84
2022/02/20 02:08:32;;;;;;;0.82;0.82;;;4.40;89.30;;;;;;5085862;28;20256;-85
2022/02/20 02:11:00;;;;;;;3.05;1.30;;;4.50;89.40;;;;;;5100783;28;20235;-84
2022/02/20 02:13:28;;;;;;;4.82;1.00;;;4.40;89.40;;;;;;5090685;28;20594;-85
2022/02/20 02:15:56;;;;;;;2.67;0.80;;;4.40;89.40;;;;;;5102458;28;20209;-85
2022/02/20 02:18:23;;;;;;;1.80;1.00;;;4.40;89.30;;;;;;5096096;28;20650;-84
2022/02/20 02:20:50;;;;;;;2.25;1.52;;;4.40;89.80;;;;;;5104193;28;20305;-83
2022/02/20 02:23:19;;;;;;;3.55;1.10;;;4.40;89.70;;;;;;5100095;28;20217;-83
2022/02/20 02:25:50;;;;;;;2.92;1.17;;;4.40;91.90;;;;;;5104195;28;20204;-84
2022/02/20 02:28:17;;;;;;;2.03;1.00;;;4.50;90.00;;;;;;5108034;28;20196;-84
2022/02/20 02:30:47;;;;;;;4.53;0.85;;;4.50;90.00;;;;;;5100916;28;20550;-84
2022/02/20 02:33:26;;;;;;;3.20;0.93;;;4.50;89.80;;;;;;5104857;28;20764;-83
2022/02/20 02:35:54;;;;;;;9.63;1.98;;;4.60;90.00;;;;;;5107911;28;20671;-84
2022/02/20 02:38:26;;;;;;;6.07;1.52;;;4.60;89.70;;;;;;5097089;28;20230;-83
2022/02/20 02:40:55;;;;;;;2.13;1.30;;;4.60;89.60;;;;;;5089727;28;20573;-84
2022/02/20 02:43:23;;;;;;;1.58;0.80;;;4.60;89.70;;;;;;5108253;27;20197;-84
2022/02/20 02:45:50;;;;;;;2.22;0.70;;;4.60;91.60;;;;;;5106784;28;20191;-84
2022/02/20 02:48:16;;;;;;;6.25;1.08;;;4.60;89.80;;;;;;5106330;28;20190;-83
2022/02/20 02:50:44;;;;;;;3.97;1.40;;;4.60;92.10;;;;;;5105621;28;20724;-84
2022/02/20 02:53:10;;;;;;;2.83;1.20;;;4.60;89.70;;;;;;5099422;28;20221;-85
2022/02/20 02:55:39;;;;;;;1.05;0.85;;;4.70;89.80;;;;;;5088309;28;20566;-84
2022/02/20 02:58:06;;;;;;;1.40;1.10;;;4.80;90.00;;;;;;5096344;28;20288;-84
2022/02/20 03:00:33;;;;;;;2.05;0.80;;;4.60;91.80;;;;;;5107463;28;20194;-83
2022/02/20 03:03:01;;;;;;;1.42;0.73;;;4.70;90.00;;;;;;5094115;28;20244;-84
2022/02/20 03:05:28;;;;;;;0.95;0.80;;;4.80;90.10;;;;;;5100378;28;20221;-85
2022/02/20 03:07:55;;;;;;;2.25;1.05;;;4.90;90.30;;;;;;5097262;28;20205;-84
2022/02/20 03:10:22;;;;;;;1.52;1.42;;;4.80;90.20;;;;;;5108531;28;20266;-85
2022/02/20 03:12:51;;;;;;;2.78;1.13;;;4.90;90.10;;;;;;5098187;28;20533;-84
2022/02/20 03:15:19;;;;;;;1.70;1.00;;;4.90;90.20;;;;;;5097768;28;20560;-83
2022/02/20 03:17:46;;;;;;;2.20;0.90;;;4.50;95.30;;;;;;5111994;28;20205;-83
2022/02/20 03:20:13;;;;;;;2.97;0.90;;;4.90;92.10;;;;;;5088786;28;20706;-84
2022/02/20 03:22:40;;;;;;;2.28;1.00;;;4.90;90.40;;;;;;5094438;28;20201;-84
2022/02/20 03:25:08;;;;;;;0.70;0.70;;;4.90;90.50;;;;;;5108142;28;20228;-85
2022/02/20 03:27:35;;;;;;;1.00;0.88;;;4.80;90.40;;;;;;5092175;28;20221;-85
2022/02/20 03:30:04;;;;;;;2.75;1.10;;;4.90;90.40;;;;;;5089374;28;20202;-85
2022/02/20 03:32:31;;;;;;;1.10;0.93;;;4.80;90.50;;;;;;5091506;28;20274;-83
2022/02/20 03:35:00;;;;;;;0.70;0.70;;;5.00;92.30;;;;;;5096905;28;20256;-84
2022/02/20 03:37:27;;;;;;;1.08;0.90;;;4.90;90.60;;;;;;5070709;28;20278;-83
2022/02/20 03:39:53;;;;;;;2.00;1.10;;;6.20;91.30;;;;;;5092272;28;20198;-84
2022/02/20 03:42:20;;;;;;;2.70;1.17;;;5.20;90.70;;;;;;5074264;28;20194;-84
2022/02/20 03:44:47;;;;;;;0.63;0.50;;;4.50;93.00;;;;;;5099570;28;20263;-85
2022/02/20 03:47:16;;;;;;;3.50;0.80;;;5.70;91.30;;;;;;5100536;28;20202;-84
2022/02/20 03:49:43;;;;;;;1.20;0.77;;;4.90;91.00;;;;;;5093927;28;20206;-84
2022/02/20 03:52:10;;;;;;;2.28;1.10;;;4.90;90.90;;;;;;5102954;28;20194;-85
2022/02/20 03:54:36;;;;;;;0.88;0.82;;;4.80;95.90;;;;;;5099564;28;20298;-84
2022/02/20 03:57:04;;;;;;;3.75;0.77;;;4.90;91.10;;;;;;5111431;28;20276;-84
2022/02/20 03:59:31;;;;;;;0.80;0.80;;;5.40;97.60;;;;;;5078911;28;20202;-83
2022/02/20 04:01:57;;;;;;;1.63;0.93;;;4.90;92.00;;;;;;5099104;28;20201;-83
2022/02/20 04:04:26;;;;;;;3.47;1.35;;;5.00;92.70;;;;;;5106099;28;20313;-83
2022/02/20 04:06:53;;;;;;;2.20;1.20;;;5.40;93.40;;;;;;5094477;28;20603;-83
2022/02/20 04:09:19;;;;;;;1.60;1.10;;;4.90;93.70;;;;;;5100321;28;20731;-84
2022/02/20 04:11:46;;;;;;;0.95;0.90;;;4.50;95.90;;;;;;5093226;28;20202;-83
2022/02/20 04:14:13;;;;;;;3.00;1.30;;;4.60;95.10;;;;;;5090805;28;20194;-83
2022/02/20 04:16:40;;;;;;;0.73;0.73;;;4.70;95.10;;;;;;5096157;28;20273;-84
2022/02/20 04:19:07;;;;;;;2.35;1.10;;;5.00;95.30;;;;;;5094301;28;20222;-83
2022/02/20 04:21:35;;;;;;;1.88;0.93;;;4.70;95.30;;;;;;5091979;28;20222;-83
2022/02/20 04:24:02;;;;;;;2.30;1.00;;;4.60;95.20;;;;;;5107293;28;20221;-83
2022/02/20 04:26:29;;;;;;;1.70;0.95;;;4.60;99.90;;;;;;5102767;28;20202;-84
2022/02/20 04:28:56;;;;;;;0.80;0.63;;;5.50;96.10;;;;;;5094816;28;20331;-84
2022/02/20 04:31:23;;;;;;;5.10;1.10;;;4.60;95.90;;;;;;5091112;28;20281;-84
2022/02/20 04:33:50;;;;;;;1.88;0.77;;;4.60;96.60;;;;;;5090588;28;20238;-83
2022/02/20 04:36:17;;;;;;;0.70;0.70;;;4.60;96.70;;;;;;5106613;28;20639;-84
2022/02/20 04:38:45;;;;;;;0.52;0.40;;;4.60;98.70;;;;;;5101995;28;20664;-84
2022/02/20 04:41:12;;;;;;;1.15;0.93;;;4.50;97.10;;;;;;5104278;28;20190;-84
2022/02/20 04:43:39;;;;;;;0.65;0.65;;;4.50;97.50;;;;;;5110269;27;20273;-83
2022/02/20 04:46:05;;;;;;;1.75;0.60;;;4.60;97.80;;;;;;5104614;28;20302;-84
2022/02/20 04:48:33;;;;;;;0.90;0.77;;;6.10;98.70;;;;;;5111237;28;20207;-83
2022/02/20 04:50:59;;;;;;;2.47;0.88;;;4.60;98.10;;;;;;5092327;28;20207;-83
2022/02/20 04:53:26;;;;;;;1.30;0.90;;;4.50;99.80;;;;;;5090535;28;20198;-83
2022/02/20 04:55:55;;;;;;;0.82;0.80;;;4.50;98.00;;;;;;5107900;28;20202;-84
2022/02/20 04:58:21;;;;;;;0.98;0.90;;;4.50;98.20;;;;;;5094898;28;20201;-84
2022/02/20 05:00:48;;;;;;;1.00;0.73;;;4.50;98.20;;;;;;5107394;28;20273;-84
2022/02/20 05:03:15;;;;;;;0.57;0.57;;;4.50;98.40;;;;;;5086884;28;20295;-84
2022/02/20 05:05:42;;;;;;;4.82;0.60;;;4.60;98.60;;;;;;5090188;28;20301;-84
2022/02/20 05:08:09;;;;;;;2.15;1.85;;;4.50;98.50;;;;;;5091679;28;20202;-84
2022/02/20 05:10:36;;;;;;;1.70;0.60;;;4.50;98.50;;;;;;5093567;28;20230;-83
2022/02/20 05:13:04;;;;;;;0.60;0.50;;;4.50;98.90;;;;;;5100380;28;20282;-84
2022/02/20 05:15:31;;;;;;;1.33;1.10;;;4.50;99.00;;;;;;5095766;28;20199;-84
2022/02/20 05:17:58;;;;;;;3.45;0.73;;;4.50;99.40;;;;;;5093061;28;20247;-84
2022/02/20 05:20:25;;;;;;;0.95;0.80;;;4.60;99.90;;;;;;5099542;28;20286;-85
2022/02/20 05:22:52;;;;;;;2.70;0.65;;;4.40;99.90;;;;;;5093845;28;20229;-84
2022/02/20 05:25:18;;;;;;;1.60;0.68;;;4.40;99.90;;;;;;5102461;28;20253;-83
2022/02/20 05:27:45;;;;;;;1.30;0.60;;;4.40;99.90;;;;;;5101570;28;20231;-84
2022/02/20 05:30:16;;;;;;;1.63;0.88;;;4.40;99.90;;;;;;5108294;28;20727;-83
2022/02/20 05:32:43;;;;;;;0.60;0.60;;;4.40;99.90;;;;;;5102289;28;20750;-84
2022/02/20 05:35:10;;;;;;;1.35;1.05;;;4.40;99.90;;;;;;5101030;28;20252;-84
2022/02/20 05:37:41;;;;;;;1.00;0.68;;;4.40;99.90;;;;;;5102148;28;20186;-84
2022/02/20 05:40:10;;;;;;;2.38;0.85;;;5.70;99.90;;;;;;5100256;28;20206;-83
2022/02/20 05:42:37;;;;;;;0.68;0.68;;;4.40;99.90;;;;;;5096579;28;20191;-84
2022/02/20 05:45:04;;;;;;;0.80;0.80;;;4.30;99.90;;;;;;5089263;28;20738;-84
2022/02/20 05:47:33;;;;;;;1.10;1.00;;;4.40;99.90;;;;;;5104533;28;20241;-84
2022/02/20 05:50:00;;;;;;;0.50;0.50;;;4.40;99.90;;;;;;5103763;28;20665;-85
2022/02/20 05:52:27;;;;;;;0.73;0.70;;;4.50;99.90;;;;;;5093002;28;20528;-84
2022/02/20 05:54:54;;;;;;;0.60;0.60;;;4.40;99.90;;;;;;5108051;28;20264;-85
2022/02/20 05:57:21;;;;;;;4.70;0.98;;;4.40;99.90;;;;;;5106251;28;20201;-84
2022/02/20 05:59:48;;;;;;;1.17;0.68;;;4.50;99.90;;;;;;5103197;28;20276;-84
2022/02/20 06:02:16;;;;;;;0.70;0.60;;;4.50;99.90;;;;;;5104957;27;20806;-83
2022/02/20 06:04:44;;;;;;;5.88;1.05;;;4.40;99.90;;;;;;5093500;28;20305;-84
2022/02/20 06:07:11;;;;;;;1.02;0.75;;;4.60;99.90;;;;;;5096684;28;20292;-84
2022/02/20 06:09:38;;;;;;;0.88;0.70;;;4.60;99.90;;;;;;5077912;28;20545;-84
2022/02/20 06:12:05;;;;;;;0.88;0.88;;;4.50;99.90;;;;;;5107024;28;20701;-84
2022/02/20 06:14:32;;;;;;;0.80;0.70;;;4.60;99.90;;;;;;5102841;28;20197;-85
2022/02/20 06:16:59;;;;;;;0.40;0.40;;;4.50;99.90;;;;;;5093817;28;20218;-84
2022/02/20 06:19:26;;;;;;;2.08;1.98;;;4.60;99.90;;;;;;5096855;28;20223;-84
2022/02/20 06:21:54;;;;;;;0.95;0.70;;;4.60;99.90;;;;;;5095602;28;20212;-84
2022/02/20 06:24:21;;;;;;;1.20;1.02;;;4.60;99.90;;;;;;5107556;28;20622;-84
2022/02/20 06:26:48;;;;;;;0.70;0.70;;;4.60;99.90;;;;;;5087981;28;20703;-84
2022/02/20 06:29:15;;;;;;;0.85;0.80;;;4.60;99.90;;;;;;5089630;28;20226;-83
2022/02/20 06:31:42;;;;;;;0.50;0.40;;;4.70;99.90;;;;;;5072803;28;20199;-84
2022/02/20 06:34:09;;;;;;;3.80;0.98;;;4.70;99.90;;;;;;5092825;28;20202;-84
2022/02/20 06:36:36;;;;;;;0.77;0.70;;;4.70;99.90;;;;;;5067941;28;20204;-83
2022/02/20 06:39:05;;;;;;;1.15;1.02;;;4.70;99.90;;;;;;5073335;28;20194;-84
2022/02/20 06:41:32;;;;;;;0.90;0.90;;;4.70;99.90;;;;;;5085630;28;20861;-84
2022/02/20 06:43:59;;;;;;;1.13;0.60;;;4.80;99.90;;;;;;5105643;28;20198;-84
2022/02/20 06:46:25;;;;;;;1.50;0.50;;;4.80;99.90;;;;;;5089226;28;20262;-84
2022/02/20 06:48:52;;;;;;;1.60;0.50;;;5.00;99.90;;;;;;5104836;28;20676;-84
2022/02/20 06:51:19;;;;;;;0.70;0.70;;;4.80;99.90;;;;;;5097281;28;20198;-84
2022/02/20 06:53:46;;;;;;;1.05;0.73;;;4.90;99.90;;;;;;5089628;28;20194;-84
2022/02/20 06:56:14;;;;;;;0.85;0.70;;;4.90;99.70;;;;;;5104586;28;20285;-84
2022/02/20 06:58:42;;;;;;;0.65;0.65;;;4.90;99.60;;;;;;5101116;28;20323;-84
2022/02/20 07:01:09;;;;;;;0.50;0.50;;;4.90;99.30;;;;;;5099944;28;20629;-84
2022/02/20 07:03:37;;;;;;;0.60;0.50;;;;;;;;;;5106012;28;20302;-83
2022/02/20 07:06:05;;;;;;;0.50;0.50;;;5.00;98.80;;;;;;5091368;28;20984;-85
2022/02/20 07:08:32;;;;;;;0.60;0.60;;;5.00;98.80;;;;;;5085272;28;20210;-84
2022/02/20 07:10:59;;;;;;;0.50;0.50;;;5.10;98.80;;;;;;5102874;28;20197;-84
2022/02/20 07:13:27;;;;;;;0.73;0.70;;;4.50;99.90;;;;;;5092091;28;20665;-84
2022/02/20 07:15:54;;;;;;;1.70;0.70;;;5.00;98.50;;;;;;5089139;28;20601;-85
2022/02/20 07:18:21;;;;;;;0.63;0.60;;;5.00;98.60;;;;;;5087934;28;20195;-84
2022/02/20 07:20:48;;;;;;;0.68;0.68;;;5.10;99.90;;;;;;5101467;28;20210;-83
2022/02/20 07:23:15;;;;;;;0.52;0.52;;;5.10;98.80;;;;;;5089226;28;20264;-83
2022/02/20 07:25:45;;;;;;;0.73;0.60;;;4.90;98.30;;;;;;5108020;28;20268;-84
2022/02/20 07:28:15;;;;;;;0.60;0.60;;;5.90;99.00;;;;;;5091950;28;20248;-83
2022/02/20 07:30:47;;;;;;;5.55;1.35;;;5.00;99.90;;;;;;5100638;28;20686;-84
2022/02/20 07:33:16;;;;;;;1.02;0.38;;;5.60;99.50;;;;;;5111473;28;20652;-84
2022/02/20 07:35:44;;;;;;;0.95;0.85;;;5.20;99.50;;;;;;5107405;28;20198;-84
2022/02/20 07:38:11;;;;;;;0.50;0.50;;;5.10;99.10;;;;;;5109168;28;20228;-84
2022/02/20 07:40:38;;;;;;;1.45;0.68;;;5.20;98.20;;;;;;5093162;28;20261;-83
2022/02/20 07:43:07;;;;;;;1.42;0.90;;;5.10;99.90;;;;;;5105716;28;20210;-84
2022/02/20 07:45:36;;;;;;;1.80;0.90;;;5.30;98.40;;;;;;5105664;28;20237;-83
2022/02/20 07:48:14;;;;;;;0.50;0.50;;;5.30;98.60;;;;;;5106350;28;20598;-84
2022/02/20 07:50:42;;;;;;;0.77;0.77;;;5.40;98.70;;;;;;5098634;28;20204;-84
2022/02/20 07:53:14;;;;;;;0.77;0.77;;;5.50;99.90;;;;;;5092622;28;20210;-83
2022/02/20 07:55:43;;;;;;;0.60;0.60;;;5.40;98.40;;;;;;5094450;28;20730;-84
2022/02/20 07:58:12;;;;;;;0.77;0.57;;;5.40;98.10;;;;;;5085491;28;20489;-84
2022/02/20 08:00:41;;;;;;;1.58;0.68;;;5.50;98.20;;;;;;5083970;28;20221;-84
2022/02/20 08:03:12;;;;;;;0.70;0.70;;;5.50;98.70;;;;;;5090050;28;20214;-84
2022/02/20 08:05:39;;;;;;;1.35;0.95;;;5.60;98.20;;;;;;5091462;28;20276;-83
2022/02/20 08:08:15;;;;;;;1.48;0.70;;;5.70;97.80;;;;;;5074781;28;20223;-83
2022/02/20 08:10:44;;;;;;;0.90;0.90;;;5.80;98.10;;;;;;5071482;28;20747;-83
2022/02/20 08:13:12;;;;;;;1.20;0.93;;;5.80;97.60;;;;;;5074107;28;20219;-84
2022/02/20 08:15:46;;;;;;;0.70;0.70;;;5.90;97.40;;;;;;5073779;28;20203;-83
2022/02/20 08:18:15;;;;;;;1.35;1.00;;;5.60;98.70;;;;;;5070972;28;20203;-83
2022/02/20 08:20:44;;;;;;;3.90;1.30;;;6.80;98.60;;;;;;5087252;28;20206;-83
2022/02/20 08:23:11;;;;;;;1.60;1.15;;;6.20;97.80;;;;;;5083803;28;20203;-84
2022/02/20 08:25:39;;;;;;;1.10;0.93;;;6.00;98.30;;;;;;5089573;28;20215;-83
2022/02/20 08:28:09;;;;;;;1.10;0.77;;;6.00;97.20;;;;;;5086103;28;20226;-84
2022/02/20 08:30:36;;;;;;;1.83;0.73;;;6.20;97.40;;;;;;5074052;28;20736;-83
2022/02/20 08:33:05;;;;;;;0.95;0.73;;;6.20;96.90;;;;;;5089736;28;20578;-83
2022/02/20 08:35:33;;;;;;;1.48;0.57;;;6.20;96.30;;;;;;5101382;28;20201;-83
2022/02/20 08:38:01;;;;;;;1.40;0.80;;;6.20;96.30;;;;;;5103932;28;20210;-84
2022/02/20 08:40:29;;;;;;;1.95;0.70;;;6.30;96.50;;;;;;5096700;28;20190;-83
2022/02/20 08:42:56;;;;;;;1.05;0.65;;;6.20;97.50;;;;;;5084359;28;20191;-83
2022/02/20 08:45:23;;;;;;;1.50;1.40;;;6.30;96.10;;;;;;5101031;28;20225;-83
2022/02/20 08:47:50;;;;;;;1.60;0.88;;;6.60;98.10;;;;;;5090283;28;20195;-83
2022/02/20 08:50:20;;;;;;;1.02;0.73;;;6.40;96.00;;;;;;5091076;28;20669;-83
2022/02/20 08:52:50;;;;;;;0.60;0.60;;;6.40;96.40;;;;;;5083722;28;20280;-84
2022/02/20 08:55:24;;;;;;;1.08;0.63;;;6.90;97.30;;;;;;5099475;28;20278;-83
2022/02/20 08:57:51;;;;;;;0.82;0.70;;;6.40;96.40;;;;;;5108366;28;20194;-84
2022/02/20 09:00:18;;;;;;;3.25;0.90;;;6.60;96.60;;;;;;5093855;28;20191;-84
2022/02/20 09:02:45;;;;;;;1.40;0.70;;;6.70;95.80;;;;;;5091372;28;20210;-83
2022/02/20 09:05:14;;;;;;;1.23;0.93;;;6.90;95.40;;;;;;5090972;28;20202;-84
2022/02/20 09:07:47;;;;;;;3.70;0.80;;;6.80;94.10;;;;;;5080018;28;20589;-84
2022/02/20 09:10:15;;;;;;;1.55;0.70;;;6.90;95.00;;;;;;5083502;28;20734;-83
2022/02/20 09:12:45;;;;;;;1.35;0.93;;;6.90;95.90;;;;;;5089930;28;20222;-83
2022/02/20 09:15:12;;;;;;;0.52;0.45;;;7.40;95.50;;;;;;5094796;28;20297;-83
2022/02/20 09:17:42;;;;;;;1.85;0.98;;;7.10;96.20;;;;;;5089715;28;20225;-84
2022/02/20 09:20:11;;;;;;;0.98;0.82;;;7.00;95.10;;;;;;5100881;28;20258;-83
2022/02/20 09:22:41;;;;;;;0.40;0.40;;;7.00;94.80;;;;;;5090733;28;20219;-84
2022/02/20 09:25:12;;;;;;;0.80;0.80;;;6.80;94.80;;;;;;5091432;28;20206;-83
2022/02/20 09:27:42;;;;;;;1.38;0.70;;;7.00;94.40;;;;;;5084363;28;20298;-84
2022/02/20 09:30:10;;;;;;;1.02;0.63;;;7.00;94.60;;;;;;5098516;28;20267;-84
2022/02/20 09:32:37;;;;;;;0.65;0.65;;;7.10;94.50;;;;;;5102750;28;20214;-84
2022/02/20 09:35:04;;;;;;;0.95;0.90;;;7.20;95.50;;;;;;5089326;28;20201;-84
2022/02/20 09:37:36;;;;;;;0.98;0.47;;;7.40;95.60;;;;;;5088712;28;20198;-84
2022/02/20 09:40:03;;;;;;;0.60;0.60;;;7.20;94.20;;;;;;5095960;28;20202;-84
2022/02/20 09:42:30;;;;;;;0.88;0.40;;;7.30;95.40;;;;;;5096813;28;20202;-83
2022/02/20 09:45:01;;;;;;;1.58;0.60;;;7.30;94.30;;;;;;5093977;28;20191;-84
2022/02/20 09:47:30;;;;;;;0.70;0.63;;;7.30;95.60;;;;;;5097190;28;20226;-84
2022/02/20 09:49:59;;;;;;;0.80;0.60;;;7.70;95.20;;;;;;5091420;28;20566;-83
2022/02/20 09:52:33;;;;;;;2.05;0.50;;;7.40;94.00;;;;;;5103311;28;20198;-83
2022/02/20 09:55:00;;;;;;;1.02;0.60;;;7.50;94.10;;;;;;5107449;28;20190;-84
2022/02/20 09:57:27;;;;;;;2.08;0.45;;;7.60;94.50;;;;;;5107231;28;20247;-84
2022/02/20 09:59:59;;;;;;;0.50;0.50;;;7.60;93.40;;;;;;5107405;28;20198;-85
2022/02/20 10:02:40;;;;;;;0.85;0.52;;;7.70;93.60;;;;;;5103279;28;20820;-83
2022/02/20 10:05:15;;;;;;;0.65;0.65;;;7.30;93.70;;;;;;5088111;28;20199;-84
2022/02/20 10:07:47;;;;;;;0.85;0.85;;;7.80;92.90;;;;;;5077842;28;20235;-84
2022/02/20 10:10:17;;;;;;;3.00;0.75;;;7.70;93.00;;;;;;5068450;28;20293;-84
2022/02/20 10:12:44;;;;;;;2.95;2.28;;;7.60;93.50;;;;;;5069610;28;20313;-84
2022/02/20 10:15:28;;;;;;;2.05;1.95;;;7.90;93.20;;;;;;5080573;28;20555;-84
2022/02/20 10:18:13;;;;;;;1.88;1.02;;;7.80;94.20;;;;;;5088936;28;20210;-84
2022/02/20 10:20:41;;;;;;;5.68;3.83;;;8.00;94.70;;;;;;5068562;28;20643;-84
2022/02/20 10:23:09;;;;;;;5.93;2.78;;;8.00;94.10;;;;;;5068677;28;20650;-84
2022/02/20 10:25:36;;;;;;;2.72;2.25;;;7.80;93.90;;;;;;5068449;28;20203;-85
2022/02/20 10:28:07;;;;;;;3.20;2.95;;;8.00;93.40;;;;;;5086787;28;20195;-84
2022/02/20 10:30:35;;;;;;;2.08;1.85;;;8.00;93.80;;;;;;5088719;28;20274;-84
2022/02/20 10:33:05;;;;;;;3.97;3.47;;;8.10;93.10;;;;;;5088661;28;20301;-84
2022/02/20 10:35:34;;;;;;;4.65;2.20;;;8.10;92.40;;;;;;5088502;28;20202;-84
2022/02/20 10:38:09;;;;;;;1.80;1.70;;;8.30;92.60;;;;;;5088555;28;20716;-84
2022/02/20 10:40:37;;;;;;;1.00;0.75;;;8.30;92.80;;;;;;5084092;28;20247;-84
2022/02/20 10:43:05;;;;;;;1.13;0.50;;;8.40;92.20;;;;;;5068496;28;20278;-85
2022/02/20 10:45:36;;;;;;;2.17;1.70;;;8.50;92.30;;;;;;5068063;28;20199;-85
2022/02/20 10:48:04;;;;;;;1.30;1.20;;;8.60;92.30;;;;;;5068138;28;20227;-84
2022/02/20 10:50:34;;;;;;;3.17;2.95;;;8.70;93.30;;;;;;5068120;28;20302;-84
2022/02/20 10:53:17;;;;;;;1.65;1.55;;;8.50;92.20;;;;;;5067982;28;20232;-84
2022/02/20 10:55:47;;;;;;;4.05;3.65;;;8.60;91.50;;;;;;5068140;28;20245;-84
2022/02/20 10:58:21;;;;;;;2.40;2.13;;;8.70;92.90;;;;;;5067304;28;20281;-85
2022/02/20 11:00:53;;;;;;;2.28;1.58;;;8.60;91.50;;;;;;5068228;28;20280;-84
2022/02/20 11:03:22;;;;;;;3.20;2.90;;;8.60;91.40;;;;;;5080263;28;20629;-84
2022/02/20 11:05:49;;;;;;;0.80;0.80;;;8.60;91.30;;;;;;5087895;28;20221;-85
2022/02/20 11:08:18;;;;;;;1.85;1.70;;;8.60;91.70;;;;;;5073241;28;20204;-83
2022/02/20 11:10:47;;;;;;;0.70;0.50;;;8.50;90.80;;;;;;5066561;28;20283;-83
2022/02/20 11:13:20;;;;;;;0.50;0.50;;;8.50;90.90;;;;;;5068005;28;20211;-83
2022/02/20 11:15:51;;;;;;;0.60;0.50;;;8.70;91.50;;;;;;5083795;28;20573;-85
2022/02/20 11:18:21;;;;;;;0.52;0.52;;;8.70;91.10;;;;;;5086765;28;20579;-84
2022/02/20 11:20:52;;;;;;;3.17;0.50;;;8.80;90.80;;;;;;5087869;28;20210;-84
2022/02/20 11:23:24;;;;;;;0.55;0.50;;;8.90;92.00;;;;;;5087184;28;20214;-84
2022/02/20 11:25:53;;;;;;;1.00;0.53;;;9.00;91.20;;;;;;5087579;28;20207;-84
2022/02/20 11:28:20;;;;;;;0.80;0.40;;;9.20;90.80;;;;;;5087846;28;20631;-85
2022/02/20 11:30:49;;;;;;;0.70;0.50;;;9.20;91.10;;;;;;5087834;28;20699;-84
2022/02/20 11:33:17;;;;;;;0.83;0.70;;;9.00;91.90;;;;;;5087794;28;20635;-84
2022/02/20 11:35:49;;;;;;;0.50;0.35;;;8.90;90.70;;;;;;5087113;28;20613;-84
2022/02/20 11:38:20;;;;;;;0.97;0.53;;;8.90;90.80;;;;;;5087332;28;20203;-84
2022/02/20 11:40:53;;;;;;;0.70;0.60;;;9.00;91.10;;;;;;5081650;28;20629;-84
2022/02/20 11:43:22;;;;;;;0.60;0.60;;;9.10;90.60;;;;;;5067644;28;20286;-84
2022/02/20 11:46:13;;;;;;;0.43;0.43;;;9.00;90.80;;;;;;5067214;28;20272;-84
2022/02/20 11:49:19;;;;;;;0.60;0.60;;;8.90;90.20;;;;;;5067951;28;20870;-84
2022/02/20 11:52:01;;;;;;;0.90;0.90;;;8.90;90.50;;;;;;5067429;28;20249;-84
2022/02/20 11:54:31;;;;;;;1.80;0.73;;;8.80;90.20;;;;;;5066892;28;20204;-83
2022/02/20 11:57:25;;;;;;;0.77;0.77;;;8.80;90.60;;;;;;5067257;28;20208;-85
2022/02/20 12:00:20;;;;;;;0.50;0.40;;;8.90;90.60;;;;;;5067529;28;20733;-84
2022/02/20 12:03:13;;;;;;;1.10;1.00;;;9.00;90.60;;;;;;5074180;28;20617;-85
2022/02/20 12:05:40;;;;;;;0.88;0.88;;;8.90;90.30;;;;;;5084802;28;20647;-85
2022/02/20 12:08:33;;;;;;;0.80;0.60;;;8.90;90.50;;;;;;5074187;28;20867;-84
2022/02/20 12:11:10;;;;;;;0.90;0.90;;;8.90;90.50;;;;;;5070584;28;20966;-84
2022/02/20 12:13:45;;;;;;;2.58;1.08;;;9.00;90.80;;;;;;5071617;28;20230;-84
2022/02/20 12:16:24;;;;;;;1.15;0.50;;;8.90;90.50;;;;;;5090968;28;20263;-84
2022/02/20 12:19:09;;;;;;;0.70;0.60;;;8.90;90.20;;;;;;5089758;28;20211;-84
2022/02/20 12:22:00;;;;;;;0.60;0.60;;;9.00;90.60;;;;;;5090912;28;20203;-84
2022/02/20 12:24:44;;;;;;;2.57;0.83;;;9.00;90.40;;;;;;5091481;28;20635;-84
2022/02/20 12:27:17;;;;;;;0.75;0.50;;;8.90;90.30;;;;;;5088181;28;21002;-84
2022/02/20 12:29:49;;;;;;;0.93;0.57;;;8.80;90.30;;;;;;5090962;28;20290;-84
2022/02/20 12:32:18;;;;;;;0.33;0.33;;;9.00;90.50;;;;;;5091096;28;20629;-84
2022/02/20 12:35:11;;;;;;;0.50;0.50;;;9.00;90.60;;;;;;5091162;28;20672;-84
2022/02/20 12:37:39;;;;;;;0.40;0.40;;;8.90;90.50;;;;;;5090424;28;20205;-85
2022/02/20 12:40:10;;;;;;;2.40;0.77;;;8.90;90.50;;;;;;5090425;28;20926;-84
2022/02/20 12:42:41;;;;;;;2.80;0.65;;;8.90;90.50;;;;;;5070304;28;20289;-84
2022/02/20 12:45:12;;;;;;;3.70;0.60;;;8.90;90.60;;;;;;5070698;28;20286;-84
2022/02/20 12:47:44;;;;;;;0.40;0.40;;;8.90;90.60;;;;;;5070356;28;20768;-84
2022/02/20 12:50:12;;;;;;;0.83;0.60;;;9.00;90.40;;;;;;5070655;28;20218;-84
2022/02/20 12:52:43;;;;;;;1.37;0.70;;;9.00;90.50;;;;;;5069898;28;20610;-85
2022/02/20 12:55:15;;;;;;;1.33;0.85;;;9.10;90.50;;;;;;5070845;28;20724;-85
2022/02/20 12:57:44;;;;;;;0.80;0.70;;;9.20;90.80;;;;;;5070476;28;20316;-84
2022/02/20 13:00:13;;;;;;;0.53;0.53;;;9.20;90.50;;;;;;5070523;28;20201;-85
2022/02/20 13:02:42;;;;;;;0.80;0.67;;;9.20;90.10;;;;;;5077924;28;20691;-84
2022/02/20 13:05:14;;;;;;;0.87;0.80;;;9.20;90.30;;;;;;5090306;28;20717;-85
2022/02/20 13:07:44;;;;;;;1.70;1.20;;;9.20;90.50;;;;;;5080835;28;20679;-85